sensor_id;sensor_type;location;lat;lon;timestamp;P1;durP1;ratioP1;P2;durP2;ratioP2
6467;SDS011;3267;48.794;9.928;2023-07-02T04:02:07;3.65;;;1.63;;
6467;SDS011;3267;48.794;9.928;2023-07-02T04:04:33;1.70;;;1.52;;
6467;SDS011;3267;48.794;9.928;2023-07-02T04:06:58;1.88;;;1.38;;
6467;SDS011;3267;48.794;9.928;2023-07-02T04:09:24;1.90;;;1.40;;
6467;SDS011;3267;48.794;9.928;2023-07-02T04:11:50;1.88;;;1.33;;
6467;SDS011;3267;48.794;9.928;2023-07-02T04:14:15;2.17;;;1.30;;
6467;SDS011;3267;48.794;9.928;2023-07-02T04:16:45;3.63;;;1.50;;
6467;SDS011;3267;48.794;9.928;2023-07-02T04:19:11;1.58;;;1.38;;
6467;SDS011;3267;48.794;9.928;2023-07-02T04:21:36;2.95;;;1.40;;
6467;SDS011;3267;48.794;9.928;2023-07-02T04:24:02;2.75;;;1.73;;
6467;SDS011;3267;48.794;9.928;2023-07-02T04:26:28;3.10;;;1.50;;
6467;SDS011;3267;48.794;9.928;2023-07-02T04:28:54;2.33;;;1.75;;
6467;SDS011;3267;48.794;9.928;2023-07-02T04:31:20;2.22;;;1.50;;
6467;SDS011;3267;48.794;9.928;2023-07-02T04:33:46;2.33;;;1.77;;
6467;SDS011;3267;48.794;9.928;2023-07-02T04:36:12;4.05;;;1.88;;
6467;SDS011;3267;48.794;9.928;2023-07-02T04:38:37;2.28;;;2.05;;
6467;SDS011;3267;48.794;9.928;2023-07-02T04:41:04;2.92;;;2.47;;
6467;SDS011;3267;48.794;9.928;2023-07-02T04:43:33;3.60;;;2.70;;
6467;SDS011;3267;48.794;9.928;2023-07-02T04:45:59;4.68;;;2.63;;
6467;SDS011;3267;48.794;9.928;2023-07-02T04:48:25;4.63;;;2.67;;
6467;SDS011;3267;48.794;9.928;2023-07-02T04:50:51;3.20;;;2.72;;
6467;SDS011;3267;48.794;9.928;2023-07-02T04:53:16;4.20;;;2.78;;
6467;SDS011;3267;48.794;9.928;2023-07-02T04:55:42;3.22;;;2.72;;
6467;SDS011;3267;48.794;9.928;2023-07-02T04:58:08;6.55;;;3.00;;
6467;SDS011;3267;48.794;9.928;2023-07-02T05:00:34;3.35;;;2.80;;
6467;SDS011;3267;48.794;9.928;2023-07-02T05:02:59;5.47;;;3.40;;
6467;SDS011;3267;48.794;9.928;2023-07-02T05:05:25;3.13;;;2.83;;
6467;SDS011;3267;48.794;9.928;2023-07-02T05:07:51;5.35;;;4.03;;
6467;SDS011;3267;48.794;9.928;2023-07-02T05:10:16;6.65;;;4.38;;
6467;SDS011;3267;48.794;9.928;2023-07-02T05:12:42;6.25;;;3.60;;
6467;SDS011;3267;48.794;9.928;2023-07-02T05:15:07;6.00;;;4.60;;
6467;SDS011;3267;48.794;9.928;2023-07-02T05:17:33;6.50;;;4.70;;
6467;SDS011;3267;48.794;9.928;2023-07-02T05:20:01;8.27;;;4.25;;
6467;SDS011;3267;48.794;9.928;2023-07-02T05:22:28;7.20;;;3.83;;
6467;SDS011;3267;48.794;9.928;2023-07-02T05:24:54;11.70;;;4.40;;
6467;SDS011;3267;48.794;9.928;2023-07-02T05:27:19;9.30;;;4.13;;
6467;SDS011;3267;48.794;9.928;2023-07-02T05:29:45;8.60;;;4.45;;
6467;SDS011;3267;48.794;9.928;2023-07-02T05:32:11;7.65;;;4.35;;
6467;SDS011;3267;48.794;9.928;2023-07-02T05:34:37;7.90;;;4.35;;
6467;SDS011;3267;48.794;9.928;2023-07-02T05:37:02;9.05;;;4.28;;
6467;SDS011;3267;48.794;9.928;2023-07-02T05:39:28;9.23;;;4.07;;
6467;SDS011;3267;48.794;9.928;2023-07-02T05:41:54;5.20;;;3.60;;
6467;SDS011;3267;48.794;9.928;2023-07-02T05:44:21;6.93;;;4.88;;
6467;SDS011;3267;48.794;9.928;2023-07-02T05:46:46;8.45;;;4.32;;
6467;SDS011;3267;48.794;9.928;2023-07-02T05:49:12;10.52;;;4.30;;
6467;SDS011;3267;48.794;9.928;2023-07-02T05:51:37;7.75;;;3.92;;
6467;SDS011;3267;48.794;9.928;2023-07-02T05:54:03;7.75;;;4.20;;
6467;SDS011;3267;48.794;9.928;2023-07-02T05:56:29;8.30;;;3.95;;
6467;SDS011;3267;48.794;9.928;2023-07-02T05:58:54;7.72;;;4.28;;
6467;SDS011;3267;48.794;9.928;2023-07-02T06:01:20;8.98;;;4.28;;
6467;SDS011;3267;48.794;9.928;2023-07-02T06:03:45;9.48;;;4.20;;
6467;SDS011;3267;48.794;9.928;2023-07-02T06:06:14;6.53;;;3.75;;
6467;SDS011;3267;48.794;9.928;2023-07-02T06:08:40;5.82;;;3.67;;
6467;SDS011;3267;48.794;9.928;2023-07-02T06:11:06;9.43;;;3.78;;
6467;SDS011;3267;48.794;9.928;2023-07-02T06:13:31;6.32;;;2.90;;
6467;SDS011;3267;48.794;9.928;2023-07-02T06:15:57;6.72;;;3.70;;
6467;SDS011;3267;48.794;9.928;2023-07-02T06:18:23;5.25;;;3.10;;
6467;SDS011;3267;48.794;9.928;2023-07-02T06:20:48;9.75;;;3.42;;
6467;SDS011;3267;48.794;9.928;2023-07-02T06:23:14;7.47;;;3.28;;
6467;SDS011;3267;48.794;9.928;2023-07-02T06:25:40;5.80;;;3.30;;
6467;SDS011;3267;48.794;9.928;2023-07-02T06:28:05;8.05;;;3.00;;
6467;SDS011;3267;48.794;9.928;2023-07-02T06:30:31;3.60;;;2.25;;
6467;SDS011;3267;48.794;9.928;2023-07-02T06:32:56;3.13;;;2.50;;
6467;SDS011;3267;48.794;9.928;2023-07-02T06:35:22;5.40;;;2.83;;
6467;SDS011;3267;48.794;9.928;2023-07-02T06:37:47;7.53;;;2.80;;
6467;SDS011;3267;48.794;9.928;2023-07-02T06:40:13;5.53;;;2.83;;
6467;SDS011;3267;48.794;9.928;2023-07-02T06:42:39;6.72;;;2.63;;
6467;SDS011;3267;48.794;9.928;2023-07-02T06:45:05;5.63;;;3.15;;
6467;SDS011;3267;48.794;9.928;2023-07-02T06:47:31;7.28;;;3.33;;
6467;SDS011;3267;48.794;9.928;2023-07-02T06:49:57;4.28;;;3.05;;
6467;SDS011;3267;48.794;9.928;2023-07-02T06:52:23;3.63;;;2.97;;
6467;SDS011;3267;48.794;9.928;2023-07-02T06:54:49;7.15;;;4.00;;
6467;SDS011;3267;48.794;9.928;2023-07-02T06:57:14;4.38;;;3.38;;
6467;SDS011;3267;48.794;9.928;2023-07-02T06:59:40;7.15;;;3.58;;
6467;SDS011;3267;48.794;9.928;2023-07-02T07:02:06;7.40;;;4.38;;
6467;SDS011;3267;48.794;9.928;2023-07-02T07:04:31;8.95;;;3.67;;
6467;SDS011;3267;48.794;9.928;2023-07-02T07:06:59;5.47;;;3.50;;
6467;SDS011;3267;48.794;9.928;2023-07-02T07:09:26;8.50;;;4.50;;
6467;SDS011;3267;48.794;9.928;2023-07-02T07:11:52;9.93;;;4.47;;
6467;SDS011;3267;48.794;9.928;2023-07-02T07:14:17;7.38;;;4.28;;
6467;SDS011;3267;48.794;9.928;2023-07-02T07:16:43;8.20;;;4.45;;
6467;SDS011;3267;48.794;9.928;2023-07-02T07:19:10;10.18;;;5.15;;
6467;SDS011;3267;48.794;9.928;2023-07-02T07:21:35;13.13;;;5.13;;
6467;SDS011;3267;48.794;9.928;2023-07-02T07:24:01;11.13;;;4.97;;
6467;SDS011;3267;48.794;9.928;2023-07-02T07:26:27;8.38;;;5.00;;
6467;SDS011;3267;48.794;9.928;2023-07-02T07:28:52;10.88;;;5.22;;
6467;SDS011;3267;48.794;9.928;2023-07-02T07:31:21;9.02;;;4.88;;
6467;SDS011;3267;48.794;9.928;2023-07-02T07:33:46;12.38;;;5.55;;
6467;SDS011;3267;48.794;9.928;2023-07-02T07:36:12;11.75;;;5.43;;
6467;SDS011;3267;48.794;9.928;2023-07-02T07:38:39;11.35;;;5.72;;
6467;SDS011;3267;48.794;9.928;2023-07-02T07:41:04;8.35;;;5.50;;
6467;SDS011;3267;48.794;9.928;2023-07-02T07:43:30;11.85;;;6.03;;
6467;SDS011;3267;48.794;9.928;2023-07-02T07:45:56;13.82;;;5.25;;
6467;SDS011;3267;48.794;9.928;2023-07-02T07:48:21;9.57;;;6.05;;
6467;SDS011;3267;48.794;9.928;2023-07-02T07:50:47;11.32;;;5.47;;
6467;SDS011;3267;48.794;9.928;2023-07-02T07:53:13;11.93;;;7.38;;
6467;SDS011;3267;48.794;9.928;2023-07-02T07:55:38;12.50;;;6.28;;
6467;SDS011;3267;48.794;9.928;2023-07-02T07:58:04;13.27;;;6.68;;
6467;SDS011;3267;48.794;9.928;2023-07-02T08:00:29;8.68;;;6.03;;
6467;SDS011;3267;48.794;9.928;2023-07-02T08:02:55;11.88;;;6.28;;
6467;SDS011;3267;48.794;9.928;2023-07-02T08:05:21;16.80;;;6.82;;
6467;SDS011;3267;48.794;9.928;2023-07-02T08:07:48;9.60;;;6.03;;
6467;SDS011;3267;48.794;9.928;2023-07-02T08:10:13;12.88;;;6.05;;
6467;SDS011;3267;48.794;9.928;2023-07-02T08:12:39;12.85;;;6.13;;
6467;SDS011;3267;48.794;9.928;2023-07-02T08:15:05;17.02;;;7.72;;
6467;SDS011;3267;48.794;9.928;2023-07-02T08:17:31;10.80;;;6.25;;
6467;SDS011;3267;48.794;9.928;2023-07-02T08:19:57;15.75;;;7.10;;
6467;SDS011;3267;48.794;9.928;2023-07-02T08:22:23;15.35;;;6.93;;
6467;SDS011;3267;48.794;9.928;2023-07-02T08:24:48;15.80;;;7.82;;
6467;SDS011;3267;48.794;9.928;2023-07-02T08:27:15;11.32;;;6.78;;
6467;SDS011;3267;48.794;9.928;2023-07-02T08:29:44;13.60;;;6.25;;
6467;SDS011;3267;48.794;9.928;2023-07-02T08:32:12;14.05;;;7.68;;
6467;SDS011;3267;48.794;9.928;2023-07-02T08:34:38;13.13;;;7.03;;
6467;SDS011;3267;48.794;9.928;2023-07-02T08:37:04;12.00;;;6.32;;
6467;SDS011;3267;48.794;9.928;2023-07-02T08:39:30;11.80;;;6.63;;
6467;SDS011;3267;48.794;9.928;2023-07-02T08:41:56;13.80;;;6.85;;
6467;SDS011;3267;48.794;9.928;2023-07-02T08:44:22;12.77;;;7.68;;
6467;SDS011;3267;48.794;9.928;2023-07-02T08:46:47;13.10;;;7.10;;
6467;SDS011;3267;48.794;9.928;2023-07-02T08:49:18;15.73;;;6.78;;
6467;SDS011;3267;48.794;9.928;2023-07-02T08:51:44;14.70;;;7.65;;
6467;SDS011;3267;48.794;9.928;2023-07-02T08:54:11;11.85;;;6.35;;
6467;SDS011;3267;48.794;9.928;2023-07-02T08:56:36;14.40;;;7.03;;
6467;SDS011;3267;48.794;9.928;2023-07-02T08:59:03;14.93;;;9.02;;
6467;SDS011;3267;48.794;9.928;2023-07-02T09:01:31;11.10;;;6.97;;
6467;SDS011;3267;48.794;9.928;2023-07-02T09:03:59;15.40;;;7.38;;
6467;SDS011;3267;48.794;9.928;2023-07-02T09:06:25;13.85;;;7.55;;
6467;SDS011;3267;48.794;9.928;2023-07-02T09:08:51;14.25;;;7.60;;
6467;SDS011;3267;48.794;9.928;2023-07-02T09:11:17;15.32;;;7.20;;
6467;SDS011;3267;48.794;9.928;2023-07-02T09:16:25;13.38;;;7.65;;
6467;SDS011;3267;48.794;9.928;2023-07-02T09:18:56;11.98;;;7.65;;
6467;SDS011;3267;48.794;9.928;2023-07-02T09:21:25;13.07;;;7.60;;
6467;SDS011;3267;48.794;9.928;2023-07-02T09:24:21;13.75;;;7.93;;
6467;SDS011;3267;48.794;9.928;2023-07-02T09:26:48;15.65;;;7.97;;
6467;SDS011;3267;48.794;9.928;2023-07-02T09:29:20;17.27;;;7.78;;
6467;SDS011;3267;48.794;9.928;2023-07-02T09:31:51;18.08;;;8.57;;
6467;SDS011;3267;48.794;9.928;2023-07-02T09:34:17;14.05;;;7.72;;
6467;SDS011;3267;48.794;9.928;2023-07-02T09:36:43;13.38;;;8.32;;
6467;SDS011;3267;48.794;9.928;2023-07-02T09:39:13;14.15;;;8.38;;
6467;SDS011;3267;48.794;9.928;2023-07-02T09:41:40;19.80;;;8.48;;
6467;SDS011;3267;48.794;9.928;2023-07-02T09:44:08;18.58;;;9.45;;
6467;SDS011;3267;48.794;9.928;2023-07-02T09:46:36;16.02;;;9.25;;
6467;SDS011;3267;48.794;9.928;2023-07-02T09:49:05;15.95;;;8.85;;
6467;SDS011;3267;48.794;9.928;2023-07-02T09:51:33;14.68;;;9.10;;
6467;SDS011;3267;48.794;9.928;2023-07-02T09:53:59;16.42;;;8.40;;
6467;SDS011;3267;48.794;9.928;2023-07-02T09:56:25;15.38;;;8.73;;
6467;SDS011;3267;48.794;9.928;2023-07-02T09:58:50;13.13;;;8.18;;
6467;SDS011;3267;48.794;9.928;2023-07-02T10:01:16;13.80;;;8.55;;
6467;SDS011;3267;48.794;9.928;2023-07-02T10:03:42;14.98;;;8.43;;
6467;SDS011;3267;48.794;9.928;2023-07-02T10:06:07;14.68;;;8.60;;
6467;SDS011;3267;48.794;9.928;2023-07-02T10:08:33;13.23;;;8.63;;
6467;SDS011;3267;48.794;9.928;2023-07-02T10:11:11;17.35;;;8.15;;
6467;SDS011;3267;48.794;9.928;2023-07-02T10:13:38;17.70;;;8.73;;
6467;SDS011;3267;48.794;9.928;2023-07-02T10:16:05;14.35;;;8.85;;
6467;SDS011;3267;48.794;9.928;2023-07-02T10:18:31;12.70;;;7.85;;
6467;SDS011;3267;48.794;9.928;2023-07-02T10:21:00;18.88;;;8.70;;
6467;SDS011;3267;48.794;9.928;2023-07-02T10:23:37;16.60;;;8.57;;
6467;SDS011;3267;48.794;9.928;2023-07-02T10:26:16;14.55;;;8.50;;
6467;SDS011;3267;48.794;9.928;2023-07-02T10:28:58;14.45;;;8.48;;
6467;SDS011;3267;48.794;9.928;2023-07-02T10:31:25;12.98;;;7.95;;
6467;SDS011;3267;48.794;9.928;2023-07-02T10:33:51;13.98;;;7.55;;
6467;SDS011;3267;48.794;9.928;2023-07-02T10:36:17;22.67;;;8.68;;
6467;SDS011;3267;48.794;9.928;2023-07-02T10:38:48;15.85;;;7.65;;
6467;SDS011;3267;48.794;9.928;2023-07-02T10:41:29;17.67;;;8.88;;
6467;SDS011;3267;48.794;9.928;2023-07-02T10:44:05;11.20;;;6.88;;
6467;SDS011;3267;48.794;9.928;2023-07-02T10:46:34;12.80;;;7.97;;
6467;SDS011;3267;48.794;9.928;2023-07-02T10:49:08;13.70;;;7.78;;
6467;SDS011;3267;48.794;9.928;2023-07-02T10:51:34;12.25;;;8.27;;
6467;SDS011;3267;48.794;9.928;2023-07-02T10:54:00;13.65;;;7.55;;
6467;SDS011;3267;48.794;9.928;2023-07-02T10:56:29;14.98;;;8.00;;
6467;SDS011;3267;48.794;9.928;2023-07-02T10:58:56;13.05;;;8.32;;
6467;SDS011;3267;48.794;9.928;2023-07-02T11:01:28;18.15;;;8.52;;
6467;SDS011;3267;48.794;9.928;2023-07-02T11:04:04;15.95;;;8.20;;
6467;SDS011;3267;48.794;9.928;2023-07-02T11:06:31;12.88;;;7.55;;
6467;SDS011;3267;48.794;9.928;2023-07-02T11:08:58;14.05;;;8.32;;
6467;SDS011;3267;48.794;9.928;2023-07-02T11:11:25;13.30;;;8.32;;
6467;SDS011;3267;48.794;9.928;2023-07-02T11:13:51;12.23;;;7.90;;
6467;SDS011;3267;48.794;9.928;2023-07-02T11:18:49;12.13;;;8.00;;
6467;SDS011;3267;48.794;9.928;2023-07-02T11:21:15;14.65;;;8.82;;
6467;SDS011;3267;48.794;9.928;2023-07-02T11:23:41;12.48;;;8.00;;
6467;SDS011;3267;48.794;9.928;2023-07-02T11:26:07;11.90;;;8.13;;
6467;SDS011;3267;48.794;9.928;2023-07-02T11:28:34;16.83;;;8.35;;
6467;SDS011;3267;48.794;9.928;2023-07-02T11:31:00;11.48;;;7.68;;
6467;SDS011;3267;48.794;9.928;2023-07-02T11:33:37;13.80;;;8.40;;
6467;SDS011;3267;48.794;9.928;2023-07-02T11:36:07;15.00;;;8.38;;
6467;SDS011;3267;48.794;9.928;2023-07-02T11:38:45;13.95;;;8.40;;
6467;SDS011;3267;48.794;9.928;2023-07-02T11:41:10;14.60;;;8.50;;
6467;SDS011;3267;48.794;9.928;2023-07-02T11:43:37;16.42;;;8.80;;
6467;SDS011;3267;48.794;9.928;2023-07-02T11:46:03;16.30;;;8.70;;
6467;SDS011;3267;48.794;9.928;2023-07-02T11:48:29;18.73;;;8.60;;
6467;SDS011;3267;48.794;9.928;2023-07-02T11:50:54;16.42;;;9.23;;
6467;SDS011;3267;48.794;9.928;2023-07-02T11:53:20;16.13;;;9.02;;
6467;SDS011;3267;48.794;9.928;2023-07-02T11:55:46;14.57;;;10.20;;
6467;SDS011;3267;48.794;9.928;2023-07-02T11:58:11;16.92;;;9.48;;
6467;SDS011;3267;48.794;9.928;2023-07-02T12:00:37;13.45;;;8.27;;
6467;SDS011;3267;48.794;9.928;2023-07-02T12:03:03;16.77;;;9.15;;
6467;SDS011;3267;48.794;9.928;2023-07-02T12:05:28;12.57;;;9.02;;
6467;SDS011;3267;48.794;9.928;2023-07-02T12:07:54;12.90;;;9.02;;
6467;SDS011;3267;48.794;9.928;2023-07-02T12:10:20;16.02;;;9.05;;
6467;SDS011;3267;48.794;9.928;2023-07-02T12:12:45;16.17;;;9.57;;
6467;SDS011;3267;48.794;9.928;2023-07-02T12:15:11;17.27;;;9.48;;
6467;SDS011;3267;48.794;9.928;2023-07-02T12:17:36;15.65;;;8.93;;
6467;SDS011;3267;48.794;9.928;2023-07-02T12:20:02;15.63;;;9.77;;
6467;SDS011;3267;48.794;9.928;2023-07-02T12:22:28;14.13;;;9.20;;
6467;SDS011;3267;48.794;9.928;2023-07-02T12:24:54;12.25;;;7.90;;
6467;SDS011;3267;48.794;9.928;2023-07-02T12:27:22;11.75;;;8.82;;
6467;SDS011;3267;48.794;9.928;2023-07-02T12:29:48;15.07;;;9.68;;
6467;SDS011;3267;48.794;9.928;2023-07-02T12:32:14;14.52;;;9.60;;
6467;SDS011;3267;48.794;9.928;2023-07-02T12:34:41;17.73;;;9.55;;
6467;SDS011;3267;48.794;9.928;2023-07-02T12:37:06;17.80;;;9.23;;
6467;SDS011;3267;48.794;9.928;2023-07-02T12:39:32;15.55;;;9.52;;
6467;SDS011;3267;48.794;9.928;2023-07-02T12:41:58;12.82;;;9.10;;
6467;SDS011;3267;48.794;9.928;2023-07-02T12:44:23;13.15;;;8.80;;
6467;SDS011;3267;48.794;9.928;2023-07-02T12:46:49;15.93;;;9.10;;
6467;SDS011;3267;48.794;9.928;2023-07-02T12:49:15;14.77;;;9.35;;
6467;SDS011;3267;48.794;9.928;2023-07-02T12:51:40;13.93;;;8.60;;
6467;SDS011;3267;48.794;9.928;2023-07-02T12:54:06;13.32;;;9.25;;
6467;SDS011;3267;48.794;9.928;2023-07-02T12:56:32;12.65;;;8.48;;
6467;SDS011;3267;48.794;9.928;2023-07-02T12:58:57;13.18;;;9.10;;
6467;SDS011;3267;48.794;9.928;2023-07-02T13:01:23;14.05;;;8.45;;
6467;SDS011;3267;48.794;9.928;2023-07-02T13:03:49;14.90;;;8.52;;
6467;SDS011;3267;48.794;9.928;2023-07-02T13:06:15;17.90;;;8.43;;
6467;SDS011;3267;48.794;9.928;2023-07-02T13:08:41;11.80;;;8.50;;
6467;SDS011;3267;48.794;9.928;2023-07-02T13:11:07;14.85;;;8.80;;
6467;SDS011;3267;48.794;9.928;2023-07-02T13:13:33;15.10;;;8.57;;
6467;SDS011;3267;48.794;9.928;2023-07-02T13:16:01;13.73;;;8.70;;
6467;SDS011;3267;48.794;9.928;2023-07-02T13:18:27;13.00;;;8.38;;
6467;SDS011;3267;48.794;9.928;2023-07-02T13:20:52;18.67;;;9.55;;
6467;SDS011;3267;48.794;9.928;2023-07-02T13:23:18;15.25;;;8.77;;
6467;SDS011;3267;48.794;9.928;2023-07-02T13:25:44;15.35;;;8.80;;
6467;SDS011;3267;48.794;9.928;2023-07-02T13:28:09;14.55;;;8.68;;
6467;SDS011;3267;48.794;9.928;2023-07-02T13:30:35;17.80;;;8.82;;
6467;SDS011;3267;48.794;9.928;2023-07-02T13:33:01;14.10;;;7.97;;
6467;SDS011;3267;48.794;9.928;2023-07-02T13:35:26;12.80;;;8.73;;
6467;SDS011;3267;48.794;9.928;2023-07-02T13:37:52;14.75;;;9.27;;
6467;SDS011;3267;48.794;9.928;2023-07-02T13:40:17;13.20;;;8.30;;
6467;SDS011;3267;48.794;9.928;2023-07-02T13:42:43;12.38;;;8.02;;
6467;SDS011;3267;48.794;9.928;2023-07-02T13:45:09;12.63;;;8.75;;
6467;SDS011;3267;48.794;9.928;2023-07-02T13:47:35;11.55;;;8.90;;
6467;SDS011;3267;48.794;9.928;2023-07-02T13:50:02;12.50;;;8.90;;
6467;SDS011;3267;48.794;9.928;2023-07-02T13:52:29;13.77;;;9.18;;
6467;SDS011;3267;48.794;9.928;2023-07-02T13:54:55;13.85;;;8.15;;
6467;SDS011;3267;48.794;9.928;2023-07-02T13:57:21;16.15;;;9.57;;
6467;SDS011;3267;48.794;9.928;2023-07-02T13:59:47;19.30;;;8.82;;
6467;SDS011;3267;48.794;9.928;2023-07-02T14:02:13;14.43;;;9.30;;
6467;SDS011;3267;48.794;9.928;2023-07-02T14:04:38;15.20;;;9.43;;
6467;SDS011;3267;48.794;9.928;2023-07-02T14:07:04;13.88;;;8.95;;
6467;SDS011;3267;48.794;9.928;2023-07-02T14:09:30;15.25;;;9.23;;
6467;SDS011;3267;48.794;9.928;2023-07-02T14:11:56;14.77;;;8.75;;
6467;SDS011;3267;48.794;9.928;2023-07-02T14:14:21;13.10;;;8.40;;
6467;SDS011;3267;48.794;9.928;2023-07-02T14:16:47;12.60;;;8.70;;
6467;SDS011;3267;48.794;9.928;2023-07-02T14:19:13;14.13;;;8.52;;
6467;SDS011;3267;48.794;9.928;2023-07-02T14:21:40;11.88;;;8.65;;
6467;SDS011;3267;48.794;9.928;2023-07-02T14:24:06;13.63;;;8.88;;
6467;SDS011;3267;48.794;9.928;2023-07-02T14:26:31;12.70;;;8.80;;
6467;SDS011;3267;48.794;9.928;2023-07-02T14:28:57;20.27;;;8.90;;
6467;SDS011;3267;48.794;9.928;2023-07-02T14:31:23;15.40;;;8.70;;
6467;SDS011;3267;48.794;9.928;2023-07-02T14:33:49;13.15;;;8.52;;
6467;SDS011;3267;48.794;9.928;2023-07-02T14:36:15;15.52;;;8.88;;
6467;SDS011;3267;48.794;9.928;2023-07-02T14:38:41;13.05;;;8.07;;
6467;SDS011;3267;48.794;9.928;2023-07-02T14:41:06;15.38;;;8.93;;
6467;SDS011;3267;48.794;9.928;2023-07-02T14:43:32;17.20;;;8.50;;
6467;SDS011;3267;48.794;9.928;2023-07-02T14:45:59;18.80;;;8.05;;
6467;SDS011;3267;48.794;9.928;2023-07-02T14:48:26;14.05;;;9.60;;
6467;SDS011;3267;48.794;9.928;2023-07-02T14:50:53;14.02;;;8.27;;
6467;SDS011;3267;48.794;9.928;2023-07-02T14:53:22;14.13;;;9.02;;
6467;SDS011;3267;48.794;9.928;2023-07-02T14:55:48;13.32;;;8.52;;
6467;SDS011;3267;48.794;9.928;2023-07-02T14:58:15;15.65;;;9.10;;
6467;SDS011;3267;48.794;9.928;2023-07-02T15:00:42;12.85;;;9.23;;
6467;SDS011;3267;48.794;9.928;2023-07-02T15:03:09;17.95;;;8.73;;
6467;SDS011;3267;48.794;9.928;2023-07-02T15:05:35;13.65;;;8.73;;
6467;SDS011;3267;48.794;9.928;2023-07-02T15:08:01;14.32;;;8.88;;
6467;SDS011;3267;48.794;9.928;2023-07-02T15:10:27;16.20;;;9.25;;
6467;SDS011;3267;48.794;9.928;2023-07-02T15:12:52;16.05;;;8.70;;
6467;SDS011;3267;48.794;9.928;2023-07-02T15:15:18;13.35;;;9.85;;
6467;SDS011;3267;48.794;9.928;2023-07-02T15:17:43;14.18;;;9.15;;
6467;SDS011;3267;48.794;9.928;2023-07-02T15:20:10;13.70;;;9.30;;
6467;SDS011;3267;48.794;9.928;2023-07-02T15:22:38;15.27;;;9.30;;
6467;SDS011;3267;48.794;9.928;2023-07-02T15:25:04;13.27;;;9.38;;
6467;SDS011;3267;48.794;9.928;2023-07-02T15:27:30;12.30;;;9.35;;
6467;SDS011;3267;48.794;9.928;2023-07-02T15:29:56;13.50;;;8.95;;
6467;SDS011;3267;48.794;9.928;2023-07-02T15:32:21;16.13;;;10.25;;
6467;SDS011;3267;48.794;9.928;2023-07-02T15:34:47;13.48;;;9.18;;
6467;SDS011;3267;48.794;9.928;2023-07-02T15:37:13;13.18;;;9.65;;
6467;SDS011;3267;48.794;9.928;2023-07-02T15:39:39;14.10;;;9.15;;
6467;SDS011;3267;48.794;9.928;2023-07-02T15:42:05;13.82;;;9.02;;
6467;SDS011;3267;48.794;9.928;2023-07-02T15:44:31;14.02;;;9.27;;
6467;SDS011;3267;48.794;9.928;2023-07-02T15:46:56;13.55;;;9.05;;
6467;SDS011;3267;48.794;9.928;2023-07-02T15:49:23;12.55;;;8.73;;
6467;SDS011;3267;48.794;9.928;2023-07-02T15:51:50;11.85;;;8.65;;
6467;SDS011;3267;48.794;9.928;2023-07-02T15:54:16;14.18;;;9.55;;
6467;SDS011;3267;48.794;9.928;2023-07-02T15:56:41;11.48;;;8.55;;
6467;SDS011;3267;48.794;9.928;2023-07-02T15:59:07;14.98;;;9.00;;
6467;SDS011;3267;48.794;9.928;2023-07-02T16:01:34;12.70;;;9.27;;
6467;SDS011;3267;48.794;9.928;2023-07-02T16:04:02;15.23;;;8.82;;
6467;SDS011;3267;48.794;9.928;2023-07-02T16:06:32;14.43;;;8.57;;
6467;SDS011;3267;48.794;9.928;2023-07-02T16:09:02;14.35;;;8.82;;
6467;SDS011;3267;48.794;9.928;2023-07-02T16:11:29;14.05;;;9.27;;
6467;SDS011;3267;48.794;9.928;2023-07-02T16:13:59;16.58;;;8.93;;
6467;SDS011;3267;48.794;9.928;2023-07-02T16:16:28;14.13;;;9.02;;
6467;SDS011;3267;48.794;9.928;2023-07-02T16:18:58;13.10;;;9.73;;
6467;SDS011;3267;48.794;9.928;2023-07-02T16:21:24;14.13;;;9.75;;
6467;SDS011;3267;48.794;9.928;2023-07-02T16:23:50;13.00;;;8.82;;
6467;SDS011;3267;48.794;9.928;2023-07-02T16:26:16;11.05;;;9.18;;
6467;SDS011;3267;48.794;9.928;2023-07-02T16:28:42;13.27;;;9.25;;
6467;SDS011;3267;48.794;9.928;2023-07-02T16:31:08;17.15;;;9.80;;
6467;SDS011;3267;48.794;9.928;2023-07-02T16:33:34;13.70;;;9.25;;
6467;SDS011;3267;48.794;9.928;2023-07-02T16:36:02;13.25;;;9.18;;
6467;SDS011;3267;48.794;9.928;2023-07-02T16:38:30;13.95;;;9.10;;
6467;SDS011;3267;48.794;9.928;2023-07-02T16:40:57;14.07;;;8.93;;
6467;SDS011;3267;48.794;9.928;2023-07-02T16:43:23;13.63;;;8.90;;
6467;SDS011;3267;48.794;9.928;2023-07-02T16:45:53;15.60;;;9.50;;
6467;SDS011;3267;48.794;9.928;2023-07-02T16:48:21;11.43;;;8.50;;
6467;SDS011;3267;48.794;9.928;2023-07-02T16:50:48;13.90;;;9.70;;
6467;SDS011;3267;48.794;9.928;2023-07-02T16:53:13;15.20;;;9.70;;
6467;SDS011;3267;48.794;9.928;2023-07-02T16:55:39;11.82;;;8.40;;
6467;SDS011;3267;48.794;9.928;2023-07-02T16:58:07;15.93;;;9.23;;
6467;SDS011;3267;48.794;9.928;2023-07-02T17:00:33;14.77;;;9.30;;
6467;SDS011;3267;48.794;9.928;2023-07-02T17:02:59;12.95;;;8.88;;
6467;SDS011;3267;48.794;9.928;2023-07-02T17:05:25;11.88;;;9.07;;
6467;SDS011;3267;48.794;9.928;2023-07-02T17:07:50;15.07;;;8.98;;
6467;SDS011;3267;48.794;9.928;2023-07-02T17:10:16;13.15;;;9.35;;
6467;SDS011;3267;48.794;9.928;2023-07-02T17:12:42;12.95;;;8.70;;
6467;SDS011;3267;48.794;9.928;2023-07-02T17:15:08;15.52;;;9.30;;
6467;SDS011;3267;48.794;9.928;2023-07-02T17:17:34;16.75;;;9.48;;
6467;SDS011;3267;48.794;9.928;2023-07-02T17:20:00;12.85;;;10.35;;
6467;SDS011;3267;48.794;9.928;2023-07-02T17:22:27;14.27;;;9.80;;
6467;SDS011;3267;48.794;9.928;2023-07-02T17:24:55;16.38;;;9.13;;
6467;SDS011;3267;48.794;9.928;2023-07-02T17:27:24;15.57;;;9.90;;
6467;SDS011;3267;48.794;9.928;2023-07-02T17:29:53;14.65;;;8.73;;
6467;SDS011;3267;48.794;9.928;2023-07-02T17:32:21;16.35;;;9.80;;
6467;SDS011;3267;48.794;9.928;2023-07-02T17:34:48;13.27;;;9.23;;
6467;SDS011;3267;48.794;9.928;2023-07-02T17:37:14;13.90;;;9.48;;
6467;SDS011;3267;48.794;9.928;2023-07-02T17:39:42;12.93;;;9.55;;
6467;SDS011;3267;48.794;9.928;2023-07-02T17:42:09;14.40;;;9.02;;
6467;SDS011;3267;48.794;9.928;2023-07-02T17:44:38;15.57;;;9.40;;
6467;SDS011;3267;48.794;9.928;2023-07-02T17:47:06;12.63;;;8.82;;
6467;SDS011;3267;48.794;9.928;2023-07-02T17:49:37;13.35;;;8.80;;
6467;SDS011;3267;48.794;9.928;2023-07-02T17:52:05;13.88;;;8.68;;
6467;SDS011;3267;48.794;9.928;2023-07-02T17:54:39;11.00;;;8.75;;
6467;SDS011;3267;48.794;9.928;2023-07-02T17:57:07;15.90;;;8.75;;
6467;SDS011;3267;48.794;9.928;2023-07-02T17:59:35;15.20;;;8.70;;
6467;SDS011;3267;48.794;9.928;2023-07-02T18:02:01;16.33;;;8.80;;
6467;SDS011;3267;48.794;9.928;2023-07-02T18:04:27;15.05;;;8.85;;
6467;SDS011;3267;48.794;9.928;2023-07-02T18:07:04;19.67;;;9.02;;
6467;SDS011;3267;48.794;9.928;2023-07-02T18:09:30;13.27;;;9.10;;
6467;SDS011;3267;48.794;9.928;2023-07-02T18:11:56;13.15;;;9.10;;
6467;SDS011;3267;48.794;9.928;2023-07-02T18:14:22;12.30;;;8.60;;
6467;SDS011;3267;48.794;9.928;2023-07-02T18:16:51;14.45;;;8.95;;
6467;SDS011;3267;48.794;9.928;2023-07-02T18:19:20;14.95;;;9.05;;
6467;SDS011;3267;48.794;9.928;2023-07-02T18:21:52;17.58;;;8.00;;
6467;SDS011;3267;48.794;9.928;2023-07-02T18:24:20;15.88;;;8.70;;
6467;SDS011;3267;48.794;9.928;2023-07-02T18:26:49;11.38;;;7.70;;
6467;SDS011;3267;48.794;9.928;2023-07-02T18:29:15;17.23;;;8.75;;
6467;SDS011;3267;48.794;9.928;2023-07-02T18:31:41;17.65;;;8.75;;
6467;SDS011;3267;48.794;9.928;2023-07-02T18:34:07;12.40;;;8.27;;
6467;SDS011;3267;48.794;9.928;2023-07-02T18:36:33;13.13;;;8.23;;
6467;SDS011;3267;48.794;9.928;2023-07-02T18:38:59;13.43;;;8.65;;
6467;SDS011;3267;48.794;9.928;2023-07-02T18:41:25;12.18;;;8.43;;
6467;SDS011;3267;48.794;9.928;2023-07-02T18:43:52;13.68;;;8.60;;
6467;SDS011;3267;48.794;9.928;2023-07-02T18:46:18;11.35;;;7.68;;
6467;SDS011;3267;48.794;9.928;2023-07-02T18:48:44;11.88;;;7.90;;
6467;SDS011;3267;48.794;9.928;2023-07-02T18:51:10;11.93;;;8.60;;
6467;SDS011;3267;48.794;9.928;2023-07-02T18:53:36;13.38;;;8.07;;
6467;SDS011;3267;48.794;9.928;2023-07-02T18:56:03;12.80;;;8.73;;
6467;SDS011;3267;48.794;9.928;2023-07-02T18:58:31;12.57;;;7.38;;
6467;SDS011;3267;48.794;9.928;2023-07-02T19:00:58;14.85;;;8.65;;
6467;SDS011;3267;48.794;9.928;2023-07-02T19:03:24;11.55;;;8.93;;
6467;SDS011;3267;48.794;9.928;2023-07-02T19:05:50;12.35;;;7.70;;
6467;SDS011;3267;48.794;9.928;2023-07-02T19:08:17;12.90;;;8.60;;